sensor_id;sensor_type;location;lat;lon;timestamp;temperature;humidity
5009;DHT22;2523;51.058;6.922;2022-10-18T00:00:48;15.90;99.90
5009;DHT22;2523;51.058;6.922;2022-10-18T00:03:13;15.90;99.90
5009;DHT22;2523;51.058;6.922;2022-10-18T00:05:39;15.90;99.90
5009;DHT22;2523;51.058;6.922;2022-10-18T00:08:04;15.90;99.90
5009;DHT22;2523;51.058;6.922;2022-10-18T00:10:30;15.90;99.90
5009;DHT22;2523;51.058;6.922;2022-10-18T00:12:56;15.90;99.90
5009;DHT22;2523;51.058;6.922;2022-10-18T00:15:21;15.90;99.90
5009;DHT22;2523;51.058;6.922;2022-10-18T00:17:47;15.90;99.90
5009;DHT22;2523;51.058;6.922;2022-10-18T00:20:12;15.90;99.90
5009;DHT22;2523;51.058;6.922;2022-10-18T00:22:39;15.90;99.90
5009;DHT22;2523;51.058;6.922;2022-10-18T00:25:06;15.90;99.90
5009;DHT22;2523;51.058;6.922;2022-10-18T00:27:33;15.90;99.90
5009;DHT22;2523;51.058;6.922;2022-10-18T00:29:59;15.90;99.90
5009;DHT22;2523;51.058;6.922;2022-10-18T00:32:25;15.90;99.90
5009;DHT22;2523;51.058;6.922;2022-10-18T00:34:50;16.00;99.90
5009;DHT22;2523;51.058;6.922;2022-10-18T00:37:16;15.90;99.90
5009;DHT22;2523;51.058;6.922;2022-10-18T00:39:42;15.90;99.90
5009;DHT22;2523;51.058;6.922;2022-10-18T00:42:16;15.90;99.90
5009;DHT22;2523;51.058;6.922;2022-10-18T00:47:09;15.90;99.90
5009;DHT22;2523;51.058;6.922;2022-10-18T00:49:42;15.90;99.90
5009;DHT22;2523;51.058;6.922;2022-10-18T00:52:34;15.90;99.90
5009;DHT22;2523;51.058;6.922;2022-10-18T00:55:00;15.90;99.90
5009;DHT22;2523;51.058;6.922;2022-10-18T00:57:26;15.90;99.90
5009;DHT22;2523;51.058;6.922;2022-10-18T00:59:52;15.90;99.90
5009;DHT22;2523;51.058;6.922;2022-10-18T01:02:18;15.90;99.90
5009;DHT22;2523;51.058;6.922;2022-10-18T01:04:45;15.90;99.90
5009;DHT22;2523;51.058;6.922;2022-10-18T01:07:29;15.90;99.90
5009;DHT22;2523;51.058;6.922;2022-10-18T01:10:24;15.90;99.90
5009;DHT22;2523;51.058;6.922;2022-10-18T01:18:59;15.90;99.90
5009;DHT22;2523;51.058;6.922;2022-10-18T01:21:34;15.90;99.90
5009;DHT22;2523;51.058;6.922;2022-10-18T01:24:25;15.90;99.90
5009;DHT22;2523;51.058;6.922;2022-10-18T01:27:28;15.90;99.90
5009;DHT22;2523;51.058;6.922;2022-10-18T01:32:52;15.90;99.90
5009;DHT22;2523;51.058;6.922;2022-10-18T01:35:22;15.90;99.90
5009;DHT22;2523;51.058;6.922;2022-10-18T01:37:49;15.90;99.90
5009;DHT22;2523;51.058;6.922;2022-10-18T01:40:18;15.90;99.90
5009;DHT22;2523;51.058;6.922;2022-10-18T01:42:46;15.90;99.90
5009;DHT22;2523;51.058;6.922;2022-10-18T01:45:14;15.90;99.90
5009;DHT22;2523;51.058;6.922;2022-10-18T01:47:43;15.90;99.90
5009;DHT22;2523;51.058;6.922;2022-10-18T01:50:10;15.90;99.90
5009;DHT22;2523;51.058;6.922;2022-10-18T01:52:47;15.90;99.90
5009;DHT22;2523;51.058;6.922;2022-10-18T01:55:12;15.90;99.90
5009;DHT22;2523;51.058;6.922;2022-10-18T01:57:41;15.90;99.90
5009;DHT22;2523;51.058;6.922;2022-10-18T02:00:23;15.90;99.90
5009;DHT22;2523;51.058;6.922;2022-10-18T02:03:04;15.90;99.90
5009;DHT22;2523;51.058;6.922;2022-10-18T02:05:47;15.90;99.90
5009;DHT22;2523;51.058;6.922;2022-10-18T02:10:55;15.90;99.90
5009;DHT22;2523;51.058;6.922;2022-10-18T02:13:26;15.90;99.90
5009;DHT22;2523;51.058;6.922;2022-10-18T02:15:56;15.90;99.90
5009;DHT22;2523;51.058;6.922;2022-10-18T02:18:28;15.90;99.90
5009;DHT22;2523;51.058;6.922;2022-10-18T02:20:57;15.90;99.90
5009;DHT22;2523;51.058;6.922;2022-10-18T02:23:24;15.90;99.90
5009;DHT22;2523;51.058;6.922;2022-10-18T02:25:51;15.90;99.90
5009;DHT22;2523;51.058;6.922;2022-10-18T02:28:17;15.90;99.90
5009;DHT22;2523;51.058;6.922;2022-10-18T02:30:50;15.90;99.90
5009;DHT22;2523;51.058;6.922;2022-10-18T02:34:13;15.90;99.90
5009;DHT22;2523;51.058;6.922;2022-10-18T02:36:30;15.90;99.90
5009;DHT22;2523;51.058;6.922;2022-10-18T02:39:22;15.80;99.90
5009;DHT22;2523;51.058;6.922;2022-10-18T02:41:49;15.80;99.90
5009;DHT22;2523;51.058;6.922;2022-10-18T02:44:15;15.80;99.90
5009;DHT22;2523;51.058;6.922;2022-10-18T02:46:41;15.80;99.90
5009;DHT22;2523;51.058;6.922;2022-10-18T02:49:06;15.80;99.90
5009;DHT22;2523;51.058;6.922;2022-10-18T02:51:32;15.80;99.90
5009;DHT22;2523;51.058;6.922;2022-10-18T02:53:57;15.80;99.90
5009;DHT22;2523;51.058;6.922;2022-10-18T02:56:23;15.80;99.90
5009;DHT22;2523;51.058;6.922;2022-10-18T02:58:48;15.80;99.90
5009;DHT22;2523;51.058;6.922;2022-10-18T03:01:14;15.80;99.90
5009;DHT22;2523;51.058;6.922;2022-10-18T03:03:39;15.80;99.90
5009;DHT22;2523;51.058;6.922;2022-10-18T03:06:05;15.80;99.90
5009;DHT22;2523;51.058;6.922;2022-10-18T03:08:30;15.80;99.90
5009;DHT22;2523;51.058;6.922;2022-10-18T03:10:56;15.80;99.90
5009;DHT22;2523;51.058;6.922;2022-10-18T03:13:21;15.80;99.90
5009;DHT22;2523;51.058;6.922;2022-10-18T03:15:47;15.80;99.90
5009;DHT22;2523;51.058;6.922;2022-10-18T03:18:13;15.80;99.90
5009;DHT22;2523;51.058;6.922;2022-10-18T03:20:39;15.80;99.90
5009;DHT22;2523;51.058;6.922;2022-10-18T03:23:05;15.80;99.90
5009;DHT22;2523;51.058;6.922;2022-10-18T03:25:32;15.80;99.90
5009;DHT22;2523;51.058;6.922;2022-10-18T03:27:57;15.80;99.90
5009;DHT22;2523;51.058;6.922;2022-10-18T03:30:23;15.70;99.90
5009;DHT22;2523;51.058;6.922;2022-10-18T03:32:49;15.70;99.90
5009;DHT22;2523;51.058;6.922;2022-10-18T03:35:14;15.70;99.90
5009;DHT22;2523;51.058;6.922;2022-10-18T03:37:40;15.70;99.90
5009;DHT22;2523;51.058;6.922;2022-10-18T03:40:06;15.80;99.90
5009;DHT22;2523;51.058;6.922;2022-10-18T03:42:32;15.80;99.90
5009;DHT22;2523;51.058;6.922;2022-10-18T03:44:58;15.80;99.90
5009;DHT22;2523;51.058;6.922;2022-10-18T03:47:23;15.80;99.90
5009;DHT22;2523;51.058;6.922;2022-10-18T03:49:49;15.80;99.90
5009;DHT22;2523;51.058;6.922;2022-10-18T03:52:15;15.80;99.90
5009;DHT22;2523;51.058;6.922;2022-10-18T03:54:40;15.80;99.90
5009;DHT22;2523;51.058;6.922;2022-10-18T03:57:06;15.80;99.90
5009;DHT22;2523;51.058;6.922;2022-10-18T03:59:31;15.80;99.90
5009;DHT22;2523;51.058;6.922;2022-10-18T04:01:57;15.80;99.90
5009;DHT22;2523;51.058;6.922;2022-10-18T04:04:22;15.80;99.90
5009;DHT22;2523;51.058;6.922;2022-10-18T04:06:48;15.80;99.90
5009;DHT22;2523;51.058;6.922;2022-10-18T04:09:13;15.80;99.90
5009;DHT22;2523;51.058;6.922;2022-10-18T04:11:39;15.80;99.90
5009;DHT22;2523;51.058;6.922;2022-10-18T04:14:04;15.80;99.90
5009;DHT22;2523;51.058;6.922;2022-10-18T04:16:30;15.80;99.90
5009;DHT22;2523;51.058;6.922;2022-10-18T04:18:55;15.80;99.90
5009;DHT22;2523;51.058;6.922;2022-10-18T04:21:21;15.80;99.90
5009;DHT22;2523;51.058;6.922;2022-10-18T04:23:47;15.80;99.90
5009;DHT22;2523;51.058;6.922;2022-10-18T04:26:13;15.80;99.90
5009;DHT22;2523;51.058;6.922;2022-10-18T04:28:38;15.80;99.90
5009;DHT22;2523;51.058;6.922;2022-10-18T04:31:05;15.80;99.90
5009;DHT22;2523;51.058;6.922;2022-10-18T04:33:31;15.80;99.90
5009;DHT22;2523;51.058;6.922;2022-10-18T04:35:57;15.80;99.90
5009;DHT22;2523;51.058;6.922;2022-10-18T04:38:22;15.80;99.90
5009;DHT22;2523;51.058;6.922;2022-10-18T04:40:48;15.80;99.90
5009;DHT22;2523;51.058;6.922;2022-10-18T04:43:14;15.80;99.90
5009;DHT22;2523;51.058;6.922;2022-10-18T04:45:39;15.80;99.90
5009;DHT22;2523;51.058;6.922;2022-10-18T04:48:05;15.80;99.90
5009;DHT22;2523;51.058;6.922;2022-10-18T04:50:31;15.80;99.90
5009;DHT22;2523;51.058;6.922;2022-10-18T04:52:56;15.80;99.90
5009;DHT22;2523;51.058;6.922;2022-10-18T04:55:22;15.80;99.90
5009;DHT22;2523;51.058;6.922;2022-10-18T04:57:48;15.90;99.90
5009;DHT22;2523;51.058;6.922;2022-10-18T05:00:13;15.90;99.90
5009;DHT22;2523;51.058;6.922;2022-10-18T05:02:39;15.90;99.90
5009;DHT22;2523;51.058;6.922;2022-10-18T05:05:05;15.90;99.90
5009;DHT22;2523;51.058;6.922;2022-10-18T05:07:30;15.90;99.90
5009;DHT22;2523;51.058;6.922;2022-10-18T05:09:56;15.90;99.90
5009;DHT22;2523;51.058;6.922;2022-10-18T05:12:22;15.90;99.90
5009;DHT22;2523;51.058;6.922;2022-10-18T05:14:47;15.90;99.90
5009;DHT22;2523;51.058;6.922;2022-10-18T05:17:13;15.90;99.90
5009;DHT22;2523;51.058;6.922;2022-10-18T05:19:39;15.90;99.90
5009;DHT22;2523;51.058;6.922;2022-10-18T05:22:04;15.90;99.90
5009;DHT22;2523;51.058;6.922;2022-10-18T05:24:30;15.90;99.90
5009;DHT22;2523;51.058;6.922;2022-10-18T05:26:56;15.90;99.90
5009;DHT22;2523;51.058;6.922;2022-10-18T05:29:22;15.90;99.90
5009;DHT22;2523;51.058;6.922;2022-10-18T05:31:48;15.90;99.90
5009;DHT22;2523;51.058;6.922;2022-10-18T05:34:13;15.90;99.90
5009;DHT22;2523;51.058;6.922;2022-10-18T05:36:39;15.90;99.90
5009;DHT22;2523;51.058;6.922;2022-10-18T05:39:05;15.90;99.90
5009;DHT22;2523;51.058;6.922;2022-10-18T05:41:31;15.90;99.90
5009;DHT22;2523;51.058;6.922;2022-10-18T05:43:56;15.90;99.90
5009;DHT22;2523;51.058;6.922;2022-10-18T05:46:22;15.90;99.90
5009;DHT22;2523;51.058;6.922;2022-10-18T05:48:51;15.90;99.90
5009;DHT22;2523;51.058;6.922;2022-10-18T05:51:19;15.90;99.90
5009;DHT22;2523;51.058;6.922;2022-10-18T05:53:45;15.90;99.90
5009;DHT22;2523;51.058;6.922;2022-10-18T05:56:10;15.80;99.90
5009;DHT22;2523;51.058;6.922;2022-10-18T05:58:36;15.90;99.90
5009;DHT22;2523;51.058;6.922;2022-10-18T06:01:04;15.90;99.90
5009;DHT22;2523;51.058;6.922;2022-10-18T06:03:30;15.80;99.90
5009;DHT22;2523;51.058;6.922;2022-10-18T06:06:06;15.90;99.90
5009;DHT22;2523;51.058;6.922;2022-10-18T06:08:33;15.80;99.90
5009;DHT22;2523;51.058;6.922;2022-10-18T06:10:58;15.90;99.90
5009;DHT22;2523;51.058;6.922;2022-10-18T06:13:24;15.90;99.90
5009;DHT22;2523;51.058;6.922;2022-10-18T06:15:54;15.90;99.90
5009;DHT22;2523;51.058;6.922;2022-10-18T06:18:19;15.90;99.90
5009;DHT22;2523;51.058;6.922;2022-10-18T06:20:45;15.90;99.90
5009;DHT22;2523;51.058;6.922;2022-10-18T06:23:10;15.90;99.90
5009;DHT22;2523;51.058;6.922;2022-10-18T06:25:36;15.90;99.90
5009;DHT22;2523;51.058;6.922;2022-10-18T06:28:03;15.90;99.90
5009;DHT22;2523;51.058;6.922;2022-10-18T06:30:29;15.90;99.90
5009;DHT22;2523;51.058;6.922;2022-10-18T06:32:59;15.90;99.90
5009;DHT22;2523;51.058;6.922;2022-10-18T06:35:24;15.90;99.90
5009;DHT22;2523;51.058;6.922;2022-10-18T06:37:50;15.90;99.90
5009;DHT22;2523;51.058;6.922;2022-10-18T06:40:15;16.00;99.90
5009;DHT22;2523;51.058;6.922;2022-10-18T06:42:41;16.00;99.90
5009;DHT22;2523;51.058;6.922;2022-10-18T06:45:07;16.00;99.90
5009;DHT22;2523;51.058;6.922;2022-10-18T06:47:33;16.00;99.90
5009;DHT22;2523;51.058;6.922;2022-10-18T06:49:58;16.00;99.90
5009;DHT22;2523;51.058;6.922;2022-10-18T06:52:24;16.00;99.90
5009;DHT22;2523;51.058;6.922;2022-10-18T06:54:50;16.00;99.90
5009;DHT22;2523;51.058;6.922;2022-10-18T06:57:16;16.00;99.90
5009;DHT22;2523;51.058;6.922;2022-10-18T06:59:42;16.00;99.90
5009;DHT22;2523;51.058;6.922;2022-10-18T07:02:11;16.00;99.90
5009;DHT22;2523;51.058;6.922;2022-10-18T07:04:38;16.10;99.90
5009;DHT22;2523;51.058;6.922;2022-10-18T07:07:04;16.10;99.90
5009;DHT22;2523;51.058;6.922;2022-10-18T07:09:29;16.00;99.90
5009;DHT22;2523;51.058;6.922;2022-10-18T07:11:55;16.00;99.90
5009;DHT22;2523;51.058;6.922;2022-10-18T07:14:20;16.10;99.90
5009;DHT22;2523;51.058;6.922;2022-10-18T07:16:46;16.10;99.90
5009;DHT22;2523;51.058;6.922;2022-10-18T07:19:11;16.10;99.90
5009;DHT22;2523;51.058;6.922;2022-10-18T07:21:38;16.10;99.90
5009;DHT22;2523;51.058;6.922;2022-10-18T07:24:03;16.10;99.90
5009;DHT22;2523;51.058;6.922;2022-10-18T07:26:31;16.10;99.90
5009;DHT22;2523;51.058;6.922;2022-10-18T07:29:05;16.10;99.90
5009;DHT22;2523;51.058;6.922;2022-10-18T07:31:32;16.20;99.90
5009;DHT22;2523;51.058;6.922;2022-10-18T07:33:58;16.10;99.90
5009;DHT22;2523;51.058;6.922;2022-10-18T07:36:23;16.20;99.90
5009;DHT22;2523;51.058;6.922;2022-10-18T07:38:53;16.20;99.90
5009;DHT22;2523;51.058;6.922;2022-10-18T07:41:19;16.10;99.90
5009;DHT22;2523;51.058;6.922;2022-10-18T07:43:47;16.20;99.90
5009;DHT22;2523;51.058;6.922;2022-10-18T07:46:14;16.20;99.90
5009;DHT22;2523;51.058;6.922;2022-10-18T07:48:40;16.20;99.90
5009;DHT22;2523;51.058;6.922;2022-10-18T07:51:06;16.20;99.90
5009;DHT22;2523;51.058;6.922;2022-10-18T07:53:31;16.20;99.90
5009;DHT22;2523;51.058;6.922;2022-10-18T07:56:00;16.20;99.90
5009;DHT22;2523;51.058;6.922;2022-10-18T07:58:26;16.20;99.90
5009;DHT22;2523;51.058;6.922;2022-10-18T08:00:52;16.20;99.90
5009;DHT22;2523;51.058;6.922;2022-10-18T08:03:18;16.20;99.90
5009;DHT22;2523;51.058;6.922;2022-10-18T08:05:50;16.20;99.90
5009;DHT22;2523;51.058;6.922;2022-10-18T08:08:15;16.20;99.90
5009;DHT22;2523;51.058;6.922;2022-10-18T08:10:41;16.20;99.90
5009;DHT22;2523;51.058;6.922;2022-10-18T08:13:06;16.20;99.90
5009;DHT22;2523;51.058;6.922;2022-10-18T08:15:32;16.20;99.90
5009;DHT22;2523;51.058;6.922;2022-10-18T08:17:57;16.20;99.90
5009;DHT22;2523;51.058;6.922;2022-10-18T08:20:23;16.30;99.90
5009;DHT22;2523;51.058;6.922;2022-10-18T08:22:49;16.30;99.90
5009;DHT22;2523;51.058;6.922;2022-10-18T08:25:15;16.30;99.90
5009;DHT22;2523;51.058;6.922;2022-10-18T08:27:41;16.40;99.90
5009;DHT22;2523;51.058;6.922;2022-10-18T08:30:07;16.40;99.90
5009;DHT22;2523;51.058;6.922;2022-10-18T08:32:34;16.40;99.90
5009;DHT22;2523;51.058;6.922;2022-10-18T08:34:59;16.50;99.90
5009;DHT22;2523;51.058;6.922;2022-10-18T08:37:25;16.50;99.90
5009;DHT22;2523;51.058;6.922;2022-10-18T08:39:50;16.50;99.90
5009;DHT22;2523;51.058;6.922;2022-10-18T08:45:04;16.50;99.90
5009;DHT22;2523;51.058;6.922;2022-10-18T08:47:34;16.50;99.90
5009;DHT22;2523;51.058;6.922;2022-10-18T08:50:05;16.50;99.90
5009;DHT22;2523;51.058;6.922;2022-10-18T08:52:49;16.50;99.90
5009;DHT22;2523;51.058;6.922;2022-10-18T08:55:23;16.50;99.90
5009;DHT22;2523;51.058;6.922;2022-10-18T08:57:50;16.50;99.90
5009;DHT22;2523;51.058;6.922;2022-10-18T09:00:17;16.50;99.90
5009;DHT22;2523;51.058;6.922;2022-10-18T09:03:00;16.50;99.90
5009;DHT22;2523;51.058;6.922;2022-10-18T09:05:48;16.50;99.90
5009;DHT22;2523;51.058;6.922;2022-10-18T09:08:26;16.50;99.90
5009;DHT22;2523;51.058;6.922;2022-10-18T09:11:17;16.60;99.90
5009;DHT22;2523;51.058;6.922;2022-10-18T09:22:02;16.60;99.90
5009;DHT22;2523;51.058;6.922;2022-10-18T09:24:38;16.60;99.90
5009;DHT22;2523;51.058;6.922;2022-10-18T09:27:15;16.70;99.90
5009;DHT22;2523;51.058;6.922;2022-10-18T09:32:50;16.70;99.90
5009;DHT22;2523;51.058;6.922;2022-10-18T09:35:51;16.80;99.90
5009;DHT22;2523;51.058;6.922;2022-10-18T09:38:21;16.80;99.90
5009;DHT22;2523;51.058;6.922;2022-10-18T09:41:05;16.80;99.90
5009;DHT22;2523;51.058;6.922;2022-10-18T09:43:57;16.90;99.90
5009;DHT22;2523;51.058;6.922;2022-10-18T09:46:26;16.90;99.90
5009;DHT22;2523;51.058;6.922;2022-10-18T09:48:58;17.00;99.90
5009;DHT22;2523;51.058;6.922;2022-10-18T09:51:29;17.00;99.90
5009;DHT22;2523;51.058;6.922;2022-10-18T09:56:33;17.10;99.90
5009;DHT22;2523;51.058;6.922;2022-10-18T09:59:00;17.10;99.90
5009;DHT22;2523;51.058;6.922;2022-10-18T10:01:28;17.10;99.90
5009;DHT22;2523;51.058;6.922;2022-10-18T10:03:54;17.10;99.90
5009;DHT22;2523;51.058;6.922;2022-10-18T10:06:29;17.20;99.90
5009;DHT22;2523;51.058;6.922;2022-10-18T10:09:06;17.20;99.90
5009;DHT22;2523;51.058;6.922;2022-10-18T10:11:37;17.20;99.90
5009;DHT22;2523;51.058;6.922;2022-10-18T10:16:33;17.30;99.90
5009;DHT22;2523;51.058;6.922;2022-10-18T10:18:58;17.30;99.90
5009;DHT22;2523;51.058;6.922;2022-10-18T10:21:24;17.30;99.90
5009;DHT22;2523;51.058;6.922;2022-10-18T10:23:55;17.30;99.90
5009;DHT22;2523;51.058;6.922;2022-10-18T10:26:34;17.30;99.90
5009;DHT22;2523;51.058;6.922;2022-10-18T10:29:03;17.30;99.90
5009;DHT22;2523;51.058;6.922;2022-10-18T10:31:29;17.40;99.90
5009;DHT22;2523;51.058;6.922;2022-10-18T10:36:47;17.50;99.90
5009;DHT22;2523;51.058;6.922;2022-10-18T10:39:15;17.40;99.90
5009;DHT22;2523;51.058;6.922;2022-10-18T10:41:50;17.50;99.90
5009;DHT22;2523;51.058;6.922;2022-10-18T10:44:30;17.50;99.90
5009;DHT22;2523;51.058;6.922;2022-10-18T10:46:57;17.50;99.90
5009;DHT22;2523;51.058;6.922;2022-10-18T10:49:28;17.50;99.90
5009;DHT22;2523;51.058;6.922;2022-10-18T10:52:04;17.50;99.90
5009;DHT22;2523;51.058;6.922;2022-10-18T10:54:39;17.40;99.90
5009;DHT22;2523;51.058;6.922;2022-10-18T11:04:39;17.60;99.90
5009;DHT22;2523;51.058;6.922;2022-10-18T11:09:52;17.70;99.90
5009;DHT22;2523;51.058;6.922;2022-10-18T11:12:32;17.70;99.90
5009;DHT22;2523;51.058;6.922;2022-10-18T11:17:53;17.70;99.90
5009;DHT22;2523;51.058;6.922;2022-10-18T11:20:28;17.70;99.90
5009;DHT22;2523;51.058;6.922;2022-10-18T11:25:33;17.70;99.90
5009;DHT22;2523;51.058;6.922;2022-10-18T11:28:11;17.70;99.90
5009;DHT22;2523;51.058;6.922;2022-10-18T11:30:49;17.90;99.90
5009;DHT22;2523;51.058;6.922;2022-10-18T11:33:29;18.40;99.90
5009;DHT22;2523;51.058;6.922;2022-10-18T11:38:52;19.00;99.90
5009;DHT22;2523;51.058;6.922;2022-10-18T11:44:40;19.60;99.90
5009;DHT22;2523;51.058;6.922;2022-10-18T11:47:12;19.30;99.90
5009;DHT22;2523;51.058;6.922;2022-10-18T11:52:40;18.80;99.90
5009;DHT22;2523;51.058;6.922;2022-10-18T12:03:26;19.30;99.90
5009;DHT22;2523;51.058;6.922;2022-10-18T12:05:54;19.00;99.90
5009;DHT22;2523;51.058;6.922;2022-10-18T12:08:22;18.90;99.90
5009;DHT22;2523;51.058;6.922;2022-10-18T12:10:53;19.20;99.90
5009;DHT22;2523;51.058;6.922;2022-10-18T12:13:43;19.90;99.90
5009;DHT22;2523;51.058;6.922;2022-10-18T12:16:10;20.20;99.90
5009;DHT22;2523;51.058;6.922;2022-10-18T12:18:48;20.20;99.90
5009;DHT22;2523;51.058;6.922;2022-10-18T12:21:19;20.20;99.90
5009;DHT22;2523;51.058;6.922;2022-10-18T12:23:58;20.10;99.90
5009;DHT22;2523;51.058;6.922;2022-10-18T12:26:26;19.90;99.90
5009;DHT22;2523;51.058;6.922;2022-10-18T12:29:02;19.80;99.90
5009;DHT22;2523;51.058;6.922;2022-10-18T12:31:36;19.70;99.90
5009;DHT22;2523;51.058;6.922;2022-10-18T12:39:58;19.00;99.90
5009;DHT22;2523;51.058;6.922;2022-10-18T12:42:28;18.70;99.90
5009;DHT22;2523;51.058;6.922;2022-10-18T12:45:03;18.60;99.90
5009;DHT22;2523;51.058;6.922;2022-10-18T12:47:29;18.80;99.90
5009;DHT22;2523;51.058;6.922;2022-10-18T12:50:05;19.10;99.90
5009;DHT22;2523;51.058;6.922;2022-10-18T12:52:31;19.30;99.90
5009;DHT22;2523;51.058;6.922;2022-10-18T13:08:37;19.10;99.90
5009;DHT22;2523;51.058;6.922;2022-10-18T13:19:30;19.10;99.90
5009;DHT22;2523;51.058;6.922;2022-10-18T13:25:03;19.60;99.90
5009;DHT22;2523;51.058;6.922;2022-10-18T13:28:39;19.80;99.90
5009;DHT22;2523;51.058;6.922;2022-10-18T13:30:43;19.90;99.90
5009;DHT22;2523;51.058;6.922;2022-10-18T13:52:31;18.40;99.90
5009;DHT22;2523;51.058;6.922;2022-10-18T13:58:16;18.10;99.90
5009;DHT22;2523;51.058;6.922;2022-10-18T14:04:00;17.90;99.90
5009;DHT22;2523;51.058;6.922;2022-10-18T14:06:36;17.80;99.90
5009;DHT22;2523;51.058;6.922;2022-10-18T14:09:21;17.80;99.90
5009;DHT22;2523;51.058;6.922;2022-10-18T14:11:51;17.90;99.90
5009;DHT22;2523;51.058;6.922;2022-10-18T14:14:31;18.00;99.90
5009;DHT22;2523;51.058;6.922;2022-10-18T14:19:43;18.00;99.90
5009;DHT22;2523;51.058;6.922;2022-10-18T14:25:37;17.90;99.90
5009;DHT22;2523;51.058;6.922;2022-10-18T14:28:14;17.80;99.90
5009;DHT22;2523;51.058;6.922;2022-10-18T14:33:31;17.70;99.90
5009;DHT22;2523;51.058;6.922;2022-10-18T14:36:07;17.70;99.90
5009;DHT22;2523;51.058;6.922;2022-10-18T14:38:35;17.70;99.90
5009;DHT22;2523;51.058;6.922;2022-10-18T14:41:12;17.70;99.90
5009;DHT22;2523;51.058;6.922;2022-10-18T14:43:38;17.70;99.90
5009;DHT22;2523;51.058;6.922;2022-10-18T14:46:29;17.60;99.90
5009;DHT22;2523;51.058;6.922;2022-10-18T14:48:59;17.60;99.90
5009;DHT22;2523;51.058;6.922;2022-10-18T14:51:31;17.60;99.90
5009;DHT22;2523;51.058;6.922;2022-10-18T14:53:58;17.50;99.90
5009;DHT22;2523;51.058;6.922;2022-10-18T14:56:32;17.40;99.90
5009;DHT22;2523;51.058;6.922;2022-10-18T14:59:02;17.50;99.90
5009;DHT22;2523;51.058;6.922;2022-10-18T15:01:30;17.40;99.90
5009;DHT22;2523;51.058;6.922;2022-10-18T15:03:59;17.40;99.90
5009;DHT22;2523;51.058;6.922;2022-10-18T15:06:25;17.40;99.90
5009;DHT22;2523;51.058;6.922;2022-10-18T15:08:58;17.30;99.90
5009;DHT22;2523;51.058;6.922;2022-10-18T15:11:26;17.30;99.90
5009;DHT22;2523;51.058;6.922;2022-10-18T15:14:02;17.20;99.90
5009;DHT22;2523;51.058;6.922;2022-10-18T15:16:32;17.20;99.90
5009;DHT22;2523;51.058;6.922;2022-10-18T15:21:24;17.10;99.90
5009;DHT22;2523;51.058;6.922;2022-10-18T15:23:51;17.00;99.90
5009;DHT22;2523;51.058;6.922;2022-10-18T15:26:24;17.00;99.90
5009;DHT22;2523;51.058;6.922;2022-10-18T15:28:52;16.90;99.90
5009;DHT22;2523;51.058;6.922;2022-10-18T15:31:26;16.90;99.90
5009;DHT22;2523;51.058;6.922;2022-10-18T15:33:53;16.90;99.90
5009;DHT22;2523;51.058;6.922;2022-10-18T15:36:26;16.80;99.90
5009;DHT22;2523;51.058;6.922;2022-10-18T15:39:02;16.80;99.90
5009;DHT22;2523;51.058;6.922;2022-10-18T15:46:51;16.70;99.90
5009;DHT22;2523;51.058;6.922;2022-10-18T15:52:08;16.70;99.90
5009;DHT22;2523;51.058;6.922;2022-10-18T15:54:40;16.60;99.90
5009;DHT22;2523;51.058;6.922;2022-10-18T15:57:09;16.60;99.90
5009;DHT22;2523;51.058;6.922;2022-10-18T15:59:35;16.60;99.90
5009;DHT22;2523;51.058;6.922;2022-10-18T16:02:03;16.50;99.90
5009;DHT22;2523;51.058;6.922;2022-10-18T16:04:30;16.50;99.90
5009;DHT22;2523;51.058;6.922;2022-10-18T16:06:56;16.40;99.90
5009;DHT22;2523;51.058;6.922;2022-10-18T16:09:24;16.40;99.90
5009;DHT22;2523;51.058;6.922;2022-10-18T16:11:50;16.30;99.90
5009;DHT22;2523;51.058;6.922;2022-10-18T16:14:16;16.30;99.90
5009;DHT22;2523;51.058;6.922;2022-10-18T16:16:43;16.20;99.90
5009;DHT22;2523;51.058;6.922;2022-10-18T16:19:13;16.20;99.90
5009;DHT22;2523;51.058;6.922;2022-10-18T16:21:47;16.10;99.90
5009;DHT22;2523;51.058;6.922;2022-10-18T16:24:12;16.00;99.90
5009;DHT22;2523;51.058;6.922;2022-10-18T16:26:38;16.00;99.90
5009;DHT22;2523;51.058;6.922;2022-10-18T16:29:04;15.90;99.90
5009;DHT22;2523;51.058;6.922;2022-10-18T16:31:31;15.90;99.90
5009;DHT22;2523;51.058;6.922;2022-10-18T16:33:58;15.80;99.90
5009;DHT22;2523;51.058;6.922;2022-10-18T16:36:26;15.70;99.90
5009;DHT22;2523;51.058;6.922;2022-10-18T16:38:53;15.70;99.90
5009;DHT22;2523;51.058;6.922;2022-10-18T16:41:19;15.60;99.90
5009;DHT22;2523;51.058;6.922;2022-10-18T16:43:46;15.60;99.90
5009;DHT22;2523;51.058;6.922;2022-10-18T16:46:18;15.50;99.90
5009;DHT22;2523;51.058;6.922;2022-10-18T16:48:45;15.50;99.90
5009;DHT22;2523;51.058;6.922;2022-10-18T16:51:11;15.40;99.90
5009;DHT22;2523;51.058;6.922;2022-10-18T16:53:37;15.40;99.90
5009;DHT22;2523;51.058;6.922;2022-10-18T16:56:04;15.40;99.90
5009;DHT22;2523;51.058;6.922;2022-10-18T16:58:32;15.30;99.90
5009;DHT22;2523;51.058;6.922;2022-10-18T17:00:58;15.30;99.90
5009;DHT22;2523;51.058;6.922;2022-10-18T17:03:25;15.30;99.90
5009;DHT22;2523;51.058;6.922;2022-10-18T17:05:51;15.20;99.90
5009;DHT22;2523;51.058;6.922;2022-10-18T17:08:22;15.20;99.90
5009;DHT22;2523;51.058;6.922;2022-10-18T17:10:49;15.20;99.90
5009;DHT22;2523;51.058;6.922;2022-10-18T17:13:17;15.20;99.90
5009;DHT22;2523;51.058;6.922;2022-10-18T17:15:43;15.10;99.90
5009;DHT22;2523;51.058;6.922;2022-10-18T17:18:11;15.10;99.90
5009;DHT22;2523;51.058;6.922;2022-10-18T17:20:37;15.10;99.90
5009;DHT22;2523;51.058;6.922;2022-10-18T17:23:03;15.10;99.90
5009;DHT22;2523;51.058;6.922;2022-10-18T17:25:29;15.00;99.90
5009;DHT22;2523;51.058;6.922;2022-10-18T17:27:54;15.00;99.90
5009;DHT22;2523;51.058;6.922;2022-10-18T17:30:20;14.90;99.90
5009;DHT22;2523;51.058;6.922;2022-10-18T17:32:45;14.90;99.90
5009;DHT22;2523;51.058;6.922;2022-10-18T17:35:11;14.90;99.90
5009;DHT22;2523;51.058;6.922;2022-10-18T17:37:38;14.90;99.90
5009;DHT22;2523;51.058;6.922;2022-10-18T17:40:05;14.90;99.90
5009;DHT22;2523;51.058;6.922;2022-10-18T17:42:31;14.80;99.90
5009;DHT22;2523;51.058;6.922;2022-10-18T17:44:57;14.80;99.90
5009;DHT22;2523;51.058;6.922;2022-10-18T17:47:22;14.80;99.90
5009;DHT22;2523;51.058;6.922;2022-10-18T17:49:48;14.70;99.90
5009;DHT22;2523;51.058;6.922;2022-10-18T17:52:13;14.70;99.90
5009;DHT22;2523;51.058;6.922;2022-10-18T17:54:39;14.70;99.90
5009;DHT22;2523;51.058;6.922;2022-10-18T17:57:04;14.60;99.90
5009;DHT22;2523;51.058;6.922;2022-10-18T17:59:30;14.60;99.90
5009;DHT22;2523;51.058;6.922;2022-10-18T18:01:56;14.60;99.90
5009;DHT22;2523;51.058;6.922;2022-10-18T18:04:21;14.50;99.90
5009;DHT22;2523;51.058;6.922;2022-10-18T18:06:47;14.50;99.90
5009;DHT22;2523;51.058;6.922;2022-10-18T18:09:15;14.50;99.90
5009;DHT22;2523;51.058;6.922;2022-10-18T18:11:42;14.40;99.90
5009;DHT22;2523;51.058;6.922;2022-10-18T18:14:10;14.40;99.90
5009;DHT22;2523;51.058;6.922;2022-10-18T18:16:38;14.30;99.90
5009;DHT22;2523;51.058;6.922;2022-10-18T18:19:05;14.30;99.90
5009;DHT22;2523;51.058;6.922;2022-10-18T18:21:31;14.20;99.90
5009;DHT22;2523;51.058;6.922;2022-10-18T18:23:58;14.20;99.90
5009;DHT22;2523;51.058;6.922;2022-10-18T18:26:23;14.20;99.90
5009;DHT22;2523;51.058;6.922;2022-10-18T18:28:49;14.20;99.90
5009;DHT22;2523;51.058;6.922;2022-10-18T18:31:20;14.10;99.90
5009;DHT22;2523;51.058;6.922;2022-10-18T18:33:53;14.10;99.90
5009;DHT22;2523;51.058;6.922;2022-10-18T18:36:20;14.10;99.90
5009;DHT22;2523;51.058;6.922;2022-10-18T18:38:46;14.10;99.90